Overview Statistics Trail Chart Weather Telemetry Raw packets
 

This is the latest recevied weather packets stored in our database for station/object OM5ZU-10. If no packets are shown the sender has not sent any weather packets the latest 10 day(s).

<< 9 10 11 12 13 14 15 >>
Time Temp. Humidity Pressure Rain* Wind** Luminosity Snow
1788342737 28.33° C 37% 1021.3 hPa - - - -
1788341836 27.78° C 38% 1021.4 hPa - - - -
1788340936 26.11° C 43% 1021.7 hPa - - - -
1788340036 25° C 45% 1021.7 hPa - - - -
1788339136 26.11° C 40% 1021.7 hPa - - - -
1788338236 26.67° C 42% 1021.7 hPa - - - -
1788337336 26.67° C 41% 1021.7 hPa - - - -
1788336435 26.11° C 41% 1021.7 hPa - - - -
1788335535 26.11° C 43% 1021.7 hPa - - - -
1788329234 17.78° C 62% 1021.4 hPa - - - -
1788328334 17.78° C 62% 1021.4 hPa - - - -
1788327434 21.11° C 53% 1021.3 hPa - - - -
1788326534 18.89° C 60% 1021.2 hPa - - - -
1788325634 16.67° C 66% 1021.1 hPa - - - -
1788324733 15.56° C 69% 1021.2 hPa - - - -
1788323833 12.78° C 79% 1021.2 hPa - - - -
1788322933 12.22° C 81% 1021 hPa - - - -
1788322033 11.11° C 84% 1020.9 hPa - - - -
1788321133 11.11° C 84% 1020.9 hPa - - - -
1788320233 11.67° C 83% 1020.9 hPa - - - -
1788319332 11.67° C 83% 1020.8 hPa - - - -
1788318432 11.67° C 83% 1020.9 hPa - - - -
1788317532 11.67° C 81% 1020.9 hPa - - - -
1788316632 11.67° C 83% 1020.9 hPa - - - -
1788315732 11.67° C 83% 1021 hPa - - - -

* Rain since midnight (hover to see other rain measurements)
** Current wind speed in m/s (hover to see current wind gust speed)